createdAt,value
2023-05-04T00:00:16.630Z,56.06
2023-05-04T00:01:16.624Z,56.30
2023-05-04T00:02:16.646Z,56.29
2023-05-04T00:03:16.648Z,56.22
2023-05-04T00:04:16.832Z,56.28
2023-05-04T00:05:16.679Z,56.37
2023-05-04T00:06:16.626Z,56.37
2023-05-04T00:07:16.607Z,56.36
2023-05-04T00:08:16.629Z,56.37
2023-05-04T00:09:16.613Z,56.47
2023-05-04T00:10:16.638Z,56.33
2023-05-04T00:11:16.593Z,56.17
2023-05-04T00:12:16.655Z,56.66
2023-05-04T00:13:16.739Z,56.66
2023-05-04T00:14:16.634Z,56.87
2023-05-04T00:15:16.672Z,56.87
2023-05-04T00:16:16.679Z,56.99
2023-05-04T00:17:18.738Z,57.58
2023-05-04T00:18:16.641Z,57.81
2023-05-04T00:19:16.607Z,57.81
2023-05-04T00:20:16.649Z,58.07
2023-05-04T00:21:16.677Z,58.11
2023-05-04T00:22:16.640Z,58.09
2023-05-04T00:23:16.699Z,58.09
2023-05-04T00:24:16.656Z,57.91
2023-05-04T00:25:16.663Z,57.59
2023-05-04T00:26:16.701Z,57.68
2023-05-04T00:27:16.698Z,57.41
2023-05-04T00:29:16.626Z,57.42
2023-05-04T00:31:16.704Z,57.38
2023-05-04T00:32:16.706Z,57.42
2023-05-04T00:33:16.673Z,57.44
2023-05-04T00:34:16.660Z,57.54
2023-05-04T00:36:16.665Z,57.47
2023-05-04T00:38:16.807Z,57.62
2023-05-04T00:39:16.709Z,57.61
2023-05-04T00:40:16.694Z,57.53
2023-05-04T00:41:16.693Z,57.64
2023-05-04T00:42:16.713Z,57.64
2023-05-04T00:43:16.734Z,57.64
2023-05-04T00:44:16.732Z,57.72
2023-05-04T00:45:16.669Z,57.72
2023-05-04T00:46:16.710Z,58.30
2023-05-04T00:47:16.855Z,58.56
2023-05-04T00:48:16.738Z,58.85
2023-05-04T00:49:16.700Z,58.85
2023-05-04T00:50:16.744Z,59.32
2023-05-04T00:51:16.749Z,59.55
2023-05-04T00:52:16.742Z,59.99
2023-05-04T00:53:16.772Z,59.99
2023-05-04T00:54:18.929Z,59.52
2023-05-04T00:55:16.732Z,59.52
2023-05-04T00:56:16.779Z,58.88
2023-05-04T00:57:16.788Z,58.88
2023-05-04T00:58:16.708Z,58.74
2023-05-04T00:59:16.766Z,58.50
2023-05-04T01:00:16.696Z,58.50
2023-05-04T01:01:16.802Z,58.48
2023-05-04T01:02:16.757Z,58.29
2023-05-04T01:03:16.821Z,58.12
2023-05-04T01:07:16.793Z,57.81
2023-05-04T01:08:16.764Z,57.81
2023-05-04T01:09:16.793Z,57.97
2023-05-04T01:10:16.788Z,58.00
2023-05-04T01:11:16.759Z,58.00
2023-05-04T01:13:16.920Z,57.84
2023-05-04T01:14:16.775Z,58.02
2023-05-04T01:15:16.787Z,58.02
2023-05-04T01:18:16.915Z,58.07
2023-05-04T01:20:16.806Z,57.92
2023-05-04T01:21:16.761Z,58.08
2023-05-04T01:22:16.830Z,58.24
2023-05-04T01:23:16.808Z,58.26
2023-05-04T01:24:16.792Z,58.37
2023-05-04T01:25:16.831Z,58.40
2023-05-04T01:26:16.813Z,58.42
2023-05-04T01:28:16.825Z,58.52
2023-05-04T01:29:16.810Z,58.60
2023-05-04T01:30:16.844Z,58.67
2023-05-04T01:31:19.101Z,58.61
2023-05-04T01:32:16.819Z,58.61
2023-05-04T01:33:16.821Z,58.70
2023-05-04T01:35:16.855Z,58.74
2023-05-04T01:36:16.851Z,58.74
2023-05-04T01:37:16.792Z,58.66
2023-05-04T01:38:16.855Z,58.73
2023-05-04T01:39:16.845Z,58.73
2023-05-04T01:40:16.855Z,58.61
2023-05-04T01:43:16.864Z,58.51
2023-05-04T01:45:16.867Z,58.65
2023-05-04T01:46:16.904Z,58.61
2023-05-04T01:47:16.851Z,58.61
2023-05-04T01:48:16.881Z,58.56
2023-05-04T01:49:16.872Z,58.56
2023-05-04T01:50:16.831Z,58.47
2023-05-04T01:51:16.949Z,58.41
2023-05-04T01:52:16.898Z,58.36
2023-05-04T01:54:16.876Z,58.14
2023-05-04T01:55:16.853Z,58.14
2023-05-04T01:56:16.899Z,58.16
2023-05-04T01:57:16.892Z,58.16
2023-05-04T01:59:16.955Z,58.29
2023-05-04T02:00:16.893Z,58.29
2023-05-04T02:01:16.949Z,58.32
2023-05-04T02:02:16.897Z,58.31
2023-05-04T02:03:16.994Z,58.37
2023-05-04T02:05:16.871Z,58.35
2023-05-04T02:06:16.924Z,58.33
2023-05-04T02:07:16.910Z,58.31
2023-05-04T02:08:19.291Z,58.42
2023-05-04T02:09:16.931Z,58.42
2023-05-04T02:10:16.957Z,58.48
2023-05-04T02:11:16.909Z,58.48
2023-05-04T02:12:16.936Z,58.46
2023-05-04T02:13:17.013Z,58.51
2023-05-04T02:14:16.961Z,58.71
2023-05-04T02:15:16.929Z,58.78
2023-05-04T02:16:16.901Z,58.84
2023-05-04T02:17:16.957Z,58.90
2023-05-04T02:18:16.960Z,59.15
2023-05-04T02:19:16.959Z,59.15
2023-05-04T02:20:16.978Z,59.34
2023-05-04T02:21:16.892Z,59.60
2023-05-04T02:22:16.987Z,59.76
2023-05-04T02:23:16.996Z,59.76
2023-05-04T02:25:16.996Z,59.63
2023-05-04T02:28:16.966Z,59.51
2023-05-04T02:29:16.937Z,59.51
2023-05-04T02:30:16.996Z,59.48
2023-05-04T02:31:17.085Z,59.51
2023-05-04T02:32:16.992Z,59.52
2023-05-04T02:33:16.974Z,59.51
2023-05-04T02:35:17.003Z,59.67
2023-05-04T02:36:17.003Z,59.76
2023-05-04T02:37:17.005Z,59.76
2023-05-04T02:38:16.991Z,59.78
2023-05-04T02:39:16.949Z,59.78
2023-05-04T02:40:17.032Z,59.71
2023-05-04T02:41:16.999Z,59.71
2023-05-04T02:44:17.050Z,59.83
2023-05-04T02:46:17.148Z,59.86
2023-05-04T02:47:16.992Z,59.73
2023-05-04T02:51:17.028Z,59.84
2023-05-04T02:52:17.022Z,59.85
2023-05-04T02:53:17.056Z,59.73
2023-05-04T02:54:17.075Z,59.66
2023-05-04T02:55:16.995Z,59.56
2023-05-04T02:57:17.074Z,59.44
2023-05-04T02:58:17.078Z,59.43
2023-05-04T02:59:17.084Z,59.56
2023-05-04T03:01:17.141Z,59.34
2023-05-04T03:04:17.142Z,59.42
2023-05-04T03:05:17.043Z,59.40
2023-05-04T03:06:17.067Z,59.38
2023-05-04T03:07:17.056Z,59.54
2023-05-04T03:08:17.039Z,59.67
2023-05-04T03:09:17.091Z,59.62
2023-05-04T03:10:17.097Z,59.83
2023-05-04T03:11:17.104Z,59.83
2023-05-04T03:12:17.084Z,59.80
2023-05-04T03:13:17.174Z,59.82
2023-05-04T03:14:17.083Z,60.01
2023-05-04T03:15:17.112Z,60.01
2023-05-04T03:16:17.112Z,60.16
2023-05-04T03:17:17.090Z,60.22
2023-05-04T03:18:17.048Z,60.23
2023-05-04T03:19:17.130Z,60.28
2023-05-04T03:20:17.130Z,60.42
2023-05-04T03:21:17.106Z,60.42
2023-05-04T03:23:17.154Z,60.31
2023-05-04T03:24:17.136Z,60.39
2023-05-04T03:25:17.126Z,60.39
2023-05-04T03:26:17.094Z,60.39
2023-05-04T03:27:17.145Z,60.18
2023-05-04T03:29:17.128Z,60.36
2023-05-04T03:30:17.143Z,60.64
2023-05-04T03:31:17.156Z,60.64
2023-05-04T03:33:17.182Z,60.81
2023-05-04T03:34:17.114Z,60.75
2023-05-04T03:35:24.109Z,60.88
2023-05-04T03:36:17.099Z,60.90
2023-05-04T03:37:17.141Z,60.76
2023-05-04T03:38:17.188Z,60.76
2023-05-04T03:39:17.137Z,60.70
2023-05-04T03:40:17.163Z,60.60
2023-05-04T03:41:17.186Z,60.60
2023-05-04T03:42:17.158Z,60.25
2023-05-04T03:44:17.145Z,60.28
2023-05-04T03:45:17.150Z,60.49
2023-05-04T03:46:17.192Z,60.47
2023-05-04T03:47:17.162Z,60.47
2023-05-04T03:48:17.193Z,60.62
2023-05-04T03:49:17.165Z,60.71
2023-05-04T03:53:17.202Z,60.84
2023-05-04T03:54:17.218Z,60.83
2023-05-04T03:55:17.180Z,60.83
2023-05-04T03:56:17.244Z,60.52
2023-05-04T03:57:17.157Z,60.52
2023-05-04T03:58:17.206Z,60.41
2023-05-04T03:59:19.850Z,60.53
2023-05-04T04:00:17.226Z,60.53
2023-05-04T04:01:17.190Z,60.62
2023-05-04T04:02:17.197Z,60.60
2023-05-04T04:03:17.585Z,61.01
2023-05-04T04:04:17.225Z,61.01
2023-05-04T04:05:17.176Z,61.50
2023-05-04T04:06:17.251Z,61.67
2023-05-04T04:07:17.259Z,61.71
2023-05-04T04:08:17.208Z,61.84
2023-05-04T04:09:17.238Z,61.66
2023-05-04T04:10:17.222Z,61.62
2023-05-04T04:11:17.242Z,61.13
2023-05-04T04:12:17.244Z,61.07
2023-05-04T04:14:17.257Z,60.92
2023-05-04T04:15:17.348Z,60.93
2023-05-04T04:16:17.315Z,61.43
2023-05-04T04:18:17.197Z,61.36
2023-05-04T04:19:17.264Z,61.26
2023-05-04T04:20:17.274Z,61.24
2023-05-04T04:22:17.267Z,61.22
2023-05-04T04:23:17.214Z,61.22
2023-05-04T04:24:17.267Z,61.30
2023-05-04T04:25:17.250Z,61.52
2023-05-04T04:26:17.266Z,61.52
2023-05-04T04:27:17.315Z,61.52
2023-05-04T04:28:17.254Z,61.61
2023-05-04T04:29:17.310Z,61.67
2023-05-04T04:30:17.305Z,61.67
2023-05-04T04:31:17.276Z,61.57
2023-05-04T04:32:17.234Z,61.47
2023-05-04T04:33:17.252Z,61.38
2023-05-04T04:34:17.296Z,61.38
2023-05-04T04:35:17.285Z,61.38
2023-05-04T04:36:20.011Z,61.30
2023-05-04T04:37:17.312Z,61.30
2023-05-04T04:38:17.330Z,61.20
2023-05-04T04:39:17.386Z,61.18
2023-05-04T04:40:17.299Z,61.22
2023-05-04T04:41:17.260Z,61.22
2023-05-04T04:42:17.329Z,61.21
2023-05-04T04:43:17.293Z,61.20
2023-05-04T04:44:17.316Z,61.10
2023-05-04T04:45:17.366Z,61.10
2023-05-04T04:46:17.401Z,60.99
2023-05-04T04:47:17.354Z,60.85
2023-05-04T04:48:17.350Z,60.80
2023-05-04T04:49:17.301Z,60.92
2023-05-04T04:50:17.324Z,60.84
2023-05-04T04:51:17.356Z,60.68
2023-05-04T04:52:17.354Z,60.70
2023-05-04T04:53:17.355Z,60.65
2023-05-04T04:54:17.284Z,60.66
2023-05-04T04:56:17.323Z,60.66
2023-05-04T04:57:17.358Z,60.68
2023-05-04T04:58:17.361Z,60.68
2023-05-04T04:59:17.319Z,60.61
2023-05-04T05:00:17.366Z,60.56
2023-05-04T05:01:17.433Z,60.48
2023-05-04T05:02:17.315Z,60.50
2023-05-04T05:03:17.488Z,60.58
2023-05-04T05:04:17.453Z,60.49
2023-05-04T05:05:17.370Z,60.49
2023-05-04T05:06:17.388Z,60.22
2023-05-04T05:07:17.359Z,59.87
2023-05-04T05:08:17.347Z,59.84
2023-05-04T05:09:17.371Z,59.86
2023-05-04T05:10:17.397Z,59.63
2023-05-04T05:11:17.372Z,59.63
2023-05-04T05:12:17.334Z,59.41
2023-05-04T05:13:20.288Z,59.27
2023-05-04T05:14:17.390Z,59.27
2023-05-04T05:15:17.375Z,58.88
2023-05-04T05:16:17.373Z,58.88
2023-05-04T05:17:17.379Z,58.89
2023-05-04T05:18:17.388Z,58.54
2023-05-04T05:19:17.394Z,58.41
2023-05-04T05:20:17.347Z,58.59
2023-05-04T05:21:17.402Z,58.43
2023-05-04T05:22:17.395Z,58.29
2023-05-04T05:23:17.391Z,58.40
2023-05-04T05:24:17.428Z,58.21
2023-05-04T05:25:17.374Z,57.95
2023-05-04T05:26:17.399Z,57.79
2023-05-04T05:27:17.432Z,57.79
2023-05-04T05:28:17.371Z,57.79
2023-05-04T05:29:17.460Z,57.07
2023-05-04T05:30:17.426Z,57.24
2023-05-04T05:31:17.432Z,57.24
2023-05-04T05:32:17.437Z,57.21
2023-05-04T05:33:17.513Z,57.21
2023-05-04T05:34:17.432Z,57.06
2023-05-04T05:35:17.447Z,57.00
2023-05-04T05:36:17.464Z,56.79
2023-05-04T05:37:17.438Z,56.79
2023-05-04T05:38:17.415Z,56.52
2023-05-04T05:39:17.456Z,56.26
2023-05-04T05:40:17.487Z,56.31
2023-05-04T05:41:17.424Z,56.17
2023-05-04T05:42:17.485Z,55.86
2023-05-04T05:43:17.471Z,55.79
2023-05-04T05:44:17.448Z,55.79
2023-05-04T05:45:17.531Z,55.57
2023-05-04T05:46:17.535Z,55.53
2023-05-04T05:47:17.468Z,55.16
2023-05-04T05:48:17.470Z,55.18
2023-05-04T05:49:17.488Z,55.13
2023-05-04T05:50:20.454Z,55.04
2023-05-04T05:51:17.446Z,55.04
2023-05-04T05:52:17.529Z,54.88
2023-05-04T05:53:17.495Z,54.46
2023-05-04T05:54:17.442Z,54.61
2023-05-04T05:55:17.502Z,54.52
2023-05-04T05:56:17.491Z,54.45
2023-05-04T05:57:17.538Z,54.13
2023-05-04T05:58:17.516Z,53.86
2023-05-04T05:59:17.435Z,53.86
2023-05-04T06:00:17.497Z,53.48
2023-05-04T06:01:17.516Z,53.21
2023-05-04T06:02:17.492Z,53.21
2023-05-04T06:03:17.560Z,53.18
2023-05-04T06:04:17.501Z,52.95
2023-05-04T06:05:17.486Z,53.19
2023-05-04T06:06:17.506Z,53.23
2023-05-04T06:07:17.518Z,53.44
2023-05-04T06:08:17.535Z,53.00
2023-05-04T06:09:17.526Z,52.91
2023-05-04T06:10:17.508Z,52.91
2023-05-04T06:11:17.537Z,52.90
2023-05-04T06:12:17.484Z,52.90
2023-05-04T06:13:17.601Z,52.89
2023-05-04T06:14:17.543Z,52.93
2023-05-04T06:15:17.513Z,52.56
2023-05-04T06:16:17.624Z,52.30
2023-05-04T06:17:17.559Z,52.30
2023-05-04T06:18:17.570Z,51.93
2023-05-04T06:19:17.546Z,51.87
2023-05-04T06:20:17.544Z,51.53
2023-05-04T06:21:17.579Z,51.57
2023-05-04T06:22:17.544Z,51.38
2023-05-04T06:23:17.577Z,51.38
2023-05-04T06:25:17.536Z,50.78
2023-05-04T06:26:17.581Z,50.85
2023-05-04T06:27:21.377Z,50.88
2023-05-04T06:28:17.533Z,50.88
2023-05-04T06:29:17.605Z,50.26
2023-05-04T06:30:17.581Z,50.26
2023-05-04T06:31:17.612Z,50.04
2023-05-04T06:32:17.629Z,49.91
2023-05-04T06:33:17.572Z,50.12
2023-05-04T06:34:17.613Z,49.34
2023-05-04T06:35:17.610Z,49.36
2023-05-04T06:36:17.610Z,49.11
2023-05-04T06:37:17.636Z,48.95
2023-05-04T06:38:17.571Z,48.75
2023-05-04T06:39:17.611Z,48.80
2023-05-04T06:40:17.665Z,48.80
2023-05-04T06:41:17.574Z,48.56
2023-05-04T06:42:17.598Z,48.35
2023-05-04T06:43:17.565Z,47.71
2023-05-04T06:44:17.625Z,47.81
2023-05-04T06:45:17.612Z,47.76
2023-05-04T06:46:17.674Z,47.76
2023-05-04T06:47:17.639Z,47.76
2023-05-04T06:48:17.621Z,47.82
2023-05-04T06:49:17.634Z,47.82
2023-05-04T06:50:17.631Z,47.58
2023-05-04T06:51:17.622Z,47.03
2023-05-04T06:52:17.662Z,46.98
2023-05-04T06:53:17.638Z,46.36
2023-05-04T06:54:17.618Z,46.36
2023-05-04T06:55:17.641Z,46.49
2023-05-04T06:56:17.576Z,46.49
2023-05-04T06:57:17.631Z,45.93
2023-05-04T06:58:17.655Z,46.08
2023-05-04T06:59:17.622Z,46.08
2023-05-04T07:00:17.659Z,45.98
2023-05-04T07:01:18.529Z,45.98
2023-05-04T07:02:17.663Z,45.85
2023-05-04T07:03:17.706Z,45.16
2023-05-04T07:04:20.817Z,45.21
2023-05-04T07:05:17.660Z,44.79
2023-05-04T07:06:17.633Z,44.79
2023-05-04T07:07:17.689Z,44.60
2023-05-04T07:08:17.664Z,44.78
2023-05-04T07:09:17.639Z,44.49
2023-05-04T07:10:17.672Z,44.38
2023-05-04T07:11:17.693Z,44.11
2023-05-04T07:12:17.651Z,44.20
2023-05-04T07:13:17.687Z,43.86
2023-05-04T07:14:17.676Z,43.88
2023-05-04T07:15:17.688Z,44.14
2023-05-04T07:16:17.794Z,44.14
2023-05-04T07:17:17.669Z,44.02
2023-05-04T07:18:17.677Z,43.92
2023-05-04T07:20:17.672Z,42.77
2023-05-04T07:21:27.661Z,43.62
2023-05-04T07:22:17.692Z,43.60
2023-05-04T07:23:17.729Z,43.08
2023-05-04T07:24:17.729Z,42.72
2023-05-04T07:25:17.692Z,42.72
2023-05-04T07:26:17.737Z,42.78
2023-05-04T07:27:17.745Z,43.08
2023-05-04T07:28:17.730Z,42.81
2023-05-04T07:29:17.735Z,42.63
2023-05-04T07:30:17.672Z,42.69
2023-05-04T07:31:17.768Z,42.48
2023-05-04T07:32:17.796Z,42.99
2023-05-04T07:33:17.735Z,42.99
2023-05-04T07:34:17.737Z,42.69
2023-05-04T07:35:17.748Z,42.40
2023-05-04T07:36:17.771Z,41.99
2023-05-04T07:37:17.798Z,42.41
2023-05-04T07:38:17.726Z,42.41
2023-05-04T07:39:17.763Z,42.28
2023-05-04T07:40:17.761Z,41.73
2023-05-04T07:41:21.014Z,41.03
2023-05-04T07:42:17.932Z,41.03
2023-05-04T07:43:17.738Z,41.11
2023-05-04T07:44:17.766Z,40.60
2023-05-04T07:45:17.751Z,40.60
2023-05-04T07:46:17.826Z,40.38
2023-05-04T07:47:17.756Z,39.65
2023-05-04T07:48:18.162Z,40.05
2023-05-04T07:49:17.756Z,40.74
2023-05-04T07:50:17.785Z,40.49
2023-05-04T07:51:17.739Z,39.90
2023-05-04T07:52:17.773Z,39.71
2023-05-04T07:53:17.817Z,39.78
2023-05-04T07:54:17.789Z,39.76
2023-05-04T07:55:17.828Z,39.76
2023-05-04T07:56:17.767Z,39.49
2023-05-04T07:57:17.773Z,39.31
2023-05-04T07:58:17.850Z,39.50
2023-05-04T07:59:17.777Z,39.61
2023-05-04T08:00:17.782Z,39.32
2023-05-04T08:01:17.783Z,38.60
2023-05-04T08:02:17.820Z,38.66
2023-05-04T08:03:17.823Z,38.66
2023-05-04T08:04:17.787Z,38.86
2023-05-04T08:05:17.776Z,38.22
2023-05-04T08:06:17.790Z,38.09
2023-05-04T08:07:17.811Z,38.09
2023-05-04T08:08:17.803Z,37.98
2023-05-04T08:09:17.795Z,37.98
2023-05-04T08:10:17.816Z,37.69
2023-05-04T08:11:20.530Z,37.69
2023-05-04T08:12:17.841Z,36.86
2023-05-04T08:13:17.855Z,36.86
2023-05-04T08:14:17.838Z,36.83
2023-05-04T08:15:17.862Z,36.74
2023-05-04T08:16:17.866Z,36.74
2023-05-04T08:17:17.827Z,36.66
2023-05-04T08:18:21.136Z,38.00
2023-05-04T08:19:17.842Z,38.15
2023-05-04T08:20:17.888Z,38.15
2023-05-04T08:21:17.867Z,38.73
2023-05-04T08:22:17.842Z,38.73
2023-05-04T08:23:17.819Z,38.33
2023-05-04T08:24:17.854Z,38.45
2023-05-04T08:25:18.090Z,38.12
2023-05-04T08:26:17.868Z,37.69
2023-05-04T08:27:17.831Z,37.34
2023-05-04T08:28:17.905Z,36.46
2023-05-04T08:29:17.902Z,36.08
2023-05-04T08:30:17.877Z,36.22
2023-05-04T08:31:17.920Z,35.75
2023-05-04T08:32:17.861Z,35.45
2023-05-04T08:33:17.906Z,35.66
2023-05-04T08:35:17.855Z,35.21
2023-05-04T08:36:17.905Z,35.44
2023-05-04T08:37:17.924Z,35.97
2023-05-04T08:38:17.939Z,36.00
2023-05-04T08:39:17.893Z,36.00
2023-05-04T08:40:17.897Z,35.85
2023-05-04T08:41:17.935Z,36.31
2023-05-04T08:42:17.925Z,35.78
2023-05-04T08:43:17.948Z,35.78
2023-05-04T08:44:17.936Z,35.38
2023-05-04T08:45:17.871Z,35.36
2023-05-04T08:46:18.002Z,35.51
2023-05-04T08:47:17.908Z,35.72
2023-05-04T08:48:17.921Z,35.27
2023-05-04T08:49:18.024Z,35.27
2023-05-04T08:50:17.904Z,34.71
2023-05-04T08:51:17.930Z,34.75
2023-05-04T08:52:17.938Z,34.37
2023-05-04T08:53:17.922Z,34.37
2023-05-04T08:54:17.947Z,34.90
2023-05-04T08:55:21.329Z,34.97
2023-05-04T08:56:17.993Z,35.41
2023-05-04T08:57:17.943Z,35.41
2023-05-04T08:58:17.905Z,35.86
2023-05-04T08:59:17.979Z,35.49
2023-05-04T09:00:17.962Z,35.36
2023-05-04T09:01:18.035Z,35.64
2023-05-04T09:02:17.981Z,35.35
2023-05-04T09:03:18.024Z,35.35
2023-05-04T09:04:17.957Z,35.76
2023-05-04T09:05:17.963Z,36.04
2023-05-04T09:06:17.939Z,35.95
2023-05-04T09:07:17.965Z,35.34
2023-05-04T09:08:17.972Z,34.38
2023-05-04T09:09:17.974Z,34.57
2023-05-04T09:10:17.998Z,34.52
2023-05-04T09:11:17.961Z,34.52
2023-05-04T09:12:17.976Z,34.41
2023-05-04T09:13:18.057Z,34.58
2023-05-04T09:14:17.988Z,33.94
2023-05-04T09:15:17.998Z,34.05
2023-05-04T09:16:17.979Z,34.05
2023-05-04T09:17:18.143Z,33.70
2023-05-04T09:18:17.970Z,33.53
2023-05-04T09:19:17.966Z,33.44
2023-05-04T09:20:18.047Z,33.52
2023-05-04T09:21:17.996Z,33.09
2023-05-04T09:22:17.992Z,33.09
2023-05-04T09:23:18.350Z,32.97
2023-05-04T09:24:17.979Z,32.49
2023-05-04T09:25:18.017Z,32.48
2023-05-04T09:26:18.019Z,32.48
2023-05-04T09:27:18.163Z,32.22
2023-05-04T09:28:18.043Z,31.32
2023-05-04T09:30:18.075Z,32.01
2023-05-04T09:31:18.064Z,32.19
2023-05-04T09:32:21.636Z,31.83
2023-05-04T09:33:18.015Z,31.83
2023-05-04T09:34:18.039Z,31.97
2023-05-04T09:35:29.230Z,31.61
2023-05-04T09:36:18.048Z,31.00
2023-05-04T09:38:18.047Z,31.45
2023-05-04T09:39:18.056Z,31.45
2023-05-04T09:40:18.066Z,31.08
2023-05-04T09:41:18.028Z,31.08
2023-05-04T09:42:18.050Z,31.42
2023-05-04T09:43:18.032Z,31.85
2023-05-04T09:45:18.057Z,31.35
2023-05-04T09:46:18.112Z,31.01
2023-05-04T09:47:18.032Z,31.39
2023-05-04T09:48:18.102Z,31.12
2023-05-04T09:49:18.105Z,31.85
2023-05-04T09:50:20.292Z,32.03
2023-05-04T09:51:18.082Z,31.79
2023-05-04T09:52:18.085Z,31.84
2023-05-04T09:53:18.110Z,31.35
2023-05-04T09:54:18.101Z,31.97
2023-05-04T09:55:18.105Z,31.97
2023-05-04T09:56:18.128Z,32.05
2023-05-04T09:57:18.117Z,32.05
2023-05-04T09:58:18.132Z,32.50
2023-05-04T09:59:18.141Z,32.85
2023-05-04T10:00:18.216Z,32.85
2023-05-04T10:01:18.137Z,32.31
2023-05-04T10:02:23.145Z,32.31
2023-05-04T10:03:18.135Z,32.20
2023-05-04T10:04:18.122Z,32.35
2023-05-04T10:05:18.192Z,32.21
2023-05-04T10:06:18.170Z,32.01
2023-05-04T10:07:18.144Z,32.05
2023-05-04T10:08:18.097Z,32.05
2023-05-04T10:09:21.711Z,32.41
2023-05-04T10:10:18.183Z,32.41
2023-05-04T10:11:18.154Z,32.41
2023-05-04T10:12:18.159Z,32.46
2023-05-04T10:13:18.143Z,32.14
2023-05-04T10:14:18.179Z,32.57
2023-05-04T10:15:18.151Z,32.24
2023-05-04T10:16:18.232Z,32.24
2023-05-04T10:17:18.133Z,32.81
2023-05-04T10:18:18.144Z,32.68
2023-05-04T10:19:18.164Z,32.73
2023-05-04T10:20:18.192Z,33.92
2023-05-04T10:21:18.150Z,33.92
2023-05-04T10:22:18.185Z,33.85
2023-05-04T10:23:18.191Z,34.26
2023-05-04T10:24:18.167Z,34.26
2023-05-04T10:25:18.184Z,32.80
2023-05-04T10:26:18.194Z,32.88
2023-05-04T10:27:18.206Z,32.94
2023-05-04T10:28:18.210Z,32.60
2023-05-04T10:29:18.978Z,32.47
2023-05-04T10:30:18.184Z,33.36
2023-05-04T10:31:18.263Z,33.55
2023-05-04T10:32:18.153Z,33.77
2023-05-04T10:33:18.166Z,34.16
2023-05-04T10:34:18.188Z,33.95
2023-05-04T10:35:18.206Z,34.01
2023-05-04T10:36:18.197Z,33.62
2023-05-04T10:37:18.228Z,33.36
2023-05-04T10:38:18.235Z,32.91
2023-05-04T10:39:18.219Z,32.56
2023-05-04T10:40:18.223Z,32.52
2023-05-04T10:41:18.235Z,32.76
2023-05-04T10:42:18.195Z,32.78
2023-05-04T10:43:18.209Z,32.64
2023-05-04T10:44:18.243Z,32.96
2023-05-04T10:46:21.923Z,33.42
2023-05-04T10:47:18.202Z,33.42
2023-05-04T10:48:18.265Z,33.02
2023-05-04T10:49:18.324Z,33.02
2023-05-04T10:50:18.263Z,32.54
2023-05-04T10:51:18.250Z,32.62
2023-05-04T10:52:18.216Z,32.74
2023-05-04T10:53:18.242Z,33.30
2023-05-04T10:54:18.203Z,34.19
2023-05-04T10:55:18.224Z,34.92
2023-05-04T10:56:18.251Z,34.74
2023-05-04T10:57:18.280Z,34.80
2023-05-04T10:58:18.256Z,35.44
2023-05-04T10:59:18.299Z,35.18
2023-05-04T11:00:18.237Z,35.20
2023-05-04T11:01:18.343Z,35.21
2023-05-04T11:02:18.289Z,36.08
2023-05-04T11:03:18.388Z,36.08
2023-05-04T11:04:18.294Z,36.28
2023-05-04T11:05:18.286Z,36.28
2023-05-04T11:06:19.660Z,36.46
2023-05-04T11:07:18.290Z,36.38
2023-05-04T11:08:18.258Z,36.43
2023-05-04T11:09:18.309Z,36.37
2023-05-04T11:10:18.335Z,36.61
2023-05-04T11:11:18.291Z,36.85
2023-05-04T11:12:18.322Z,35.42
2023-05-04T11:13:18.469Z,35.42
2023-05-04T11:14:18.322Z,35.50
2023-05-04T11:15:18.306Z,35.11
2023-05-04T11:16:18.318Z,35.25
2023-05-04T11:18:19.139Z,35.56
2023-05-04T11:19:18.333Z,35.69
2023-05-04T11:20:18.341Z,34.80
2023-05-04T11:21:18.318Z,34.80
2023-05-04T11:22:18.328Z,34.57
2023-05-04T11:23:22.114Z,34.52
2023-05-04T11:24:18.322Z,34.52
2023-05-04T11:25:18.355Z,34.39
2023-05-04T11:26:18.327Z,34.35
2023-05-04T11:27:18.347Z,33.78
2023-05-04T11:28:18.341Z,33.78
2023-05-04T11:29:18.307Z,34.18
2023-05-04T11:31:18.445Z,33.03
2023-05-04T11:32:18.352Z,33.03
2023-05-04T11:33:18.352Z,33.73
2023-05-04T11:35:18.377Z,33.00
2023-05-04T11:36:18.401Z,33.34
2023-05-04T11:37:18.399Z,33.34
2023-05-04T11:39:18.346Z,32.72
2023-05-04T11:40:18.400Z,32.17
2023-05-04T11:41:18.391Z,32.92
2023-05-04T11:42:18.368Z,32.82
2023-05-04T11:43:18.419Z,32.98
2023-05-04T11:44:18.399Z,33.46
2023-05-04T11:45:18.426Z,32.64
2023-05-04T11:46:18.446Z,32.64
2023-05-04T11:47:18.397Z,32.73
2023-05-04T11:48:18.943Z,31.11
2023-05-04T11:49:18.420Z,31.36
2023-05-04T11:50:18.398Z,31.95
2023-05-04T11:51:18.394Z,31.95
2023-05-04T11:52:18.374Z,31.35
2023-05-04T11:53:18.420Z,31.06
2023-05-04T11:54:18.468Z,31.35
2023-05-04T11:55:18.376Z,31.35
2023-05-04T11:56:18.445Z,31.50
2023-05-04T11:57:18.431Z,31.88
2023-05-04T11:58:18.411Z,31.99
2023-05-04T11:59:18.422Z,32.35
2023-05-04T12:00:22.266Z,32.01
2023-05-04T12:01:18.461Z,32.01
2023-05-04T12:02:18.528Z,32.43
2023-05-04T12:03:18.556Z,32.67
2023-05-04T12:04:18.478Z,31.05
2023-05-04T12:05:18.464Z,31.05
2023-05-04T12:06:18.455Z,31.01
2023-05-04T12:07:18.441Z,30.48
2023-05-04T12:08:18.437Z,30.77
2023-05-04T12:09:18.449Z,31.33
2023-05-04T12:10:18.441Z,31.33
2023-05-04T12:12:18.456Z,32.44
2023-05-04T12:13:18.480Z,32.44
2023-05-04T12:14:18.465Z,31.86
2023-05-04T12:15:18.453Z,30.88
2023-05-04T12:16:18.545Z,30.88
2023-05-04T12:17:18.497Z,30.67
2023-05-04T12:18:18.500Z,30.67
2023-05-04T12:19:18.468Z,30.47
2023-05-04T12:20:18.499Z,30.68
2023-05-04T12:21:18.486Z,30.46
2023-05-04T12:23:18.491Z,31.03
2023-05-04T12:24:18.484Z,30.48
2023-05-04T12:25:18.479Z,30.32
2023-05-04T12:26:19.915Z,30.49
2023-05-04T12:27:18.516Z,30.16
2023-05-04T12:29:18.502Z,30.51
2023-05-04T12:30:18.535Z,31.07
2023-05-04T12:31:18.562Z,31.04
2023-05-04T12:32:18.521Z,31.04
2023-05-04T12:34:18.498Z,30.59
2023-05-04T12:35:18.547Z,30.36
2023-05-04T12:36:18.560Z,29.73
2023-05-04T12:37:24.497Z,29.88
2023-05-04T12:39:18.490Z,30.55
2023-05-04T12:40:28.373Z,29.08
2023-05-04T12:41:18.558Z,29.08
2023-05-04T12:42:18.504Z,29.38
2023-05-04T12:43:20.839Z,29.73
2023-05-04T12:44:18.541Z,29.73
2023-05-04T12:45:18.524Z,30.22
2023-05-04T12:46:18.633Z,30.22
2023-05-04T12:47:18.514Z,30.92
2023-05-04T12:49:18.592Z,29.92
2023-05-04T12:51:18.584Z,30.08
2023-05-04T12:52:18.574Z,30.63
2023-05-04T12:53:18.569Z,30.41
2023-05-04T12:54:18.579Z,30.46
2023-05-04T12:55:18.566Z,30.52
2023-05-04T12:56:18.583Z,31.00
2023-05-04T12:57:18.609Z,31.00
2023-05-04T12:58:18.593Z,31.07
2023-05-04T12:59:18.584Z,31.05
2023-05-04T13:00:18.538Z,31.32
2023-05-04T13:01:18.688Z,31.52
2023-05-04T13:02:18.621Z,30.13
2023-05-04T13:03:18.831Z,30.13
2023-05-04T13:05:18.553Z,29.98
2023-05-04T13:06:18.607Z,29.70
2023-05-04T13:07:18.596Z,30.08
2023-05-04T13:08:18.594Z,30.30
2023-05-04T13:09:18.592Z,29.96
2023-05-04T13:10:18.650Z,30.04
2023-05-04T13:11:18.617Z,29.31
2023-05-04T13:12:18.644Z,29.89
2023-05-04T13:13:18.749Z,29.89
2023-05-04T13:14:22.632Z,29.04
2023-05-04T13:15:18.619Z,28.45
2023-05-04T13:16:18.648Z,28.32
2023-05-04T13:17:18.627Z,28.32
2023-05-04T13:18:18.584Z,28.58
2023-05-04T13:19:18.644Z,29.70
2023-05-04T13:20:18.604Z,29.70
2023-05-04T13:21:18.606Z,29.32
2023-05-04T13:22:18.613Z,28.94
2023-05-04T13:23:18.651Z,29.04
2023-05-04T13:24:18.696Z,29.14
2023-05-04T13:25:18.658Z,28.45
2023-05-04T13:26:18.621Z,28.29
2023-05-04T13:27:18.656Z,27.99
2023-05-04T13:28:18.764Z,27.99
2023-05-04T13:29:18.657Z,27.95
2023-05-04T13:30:18.697Z,28.27
2023-05-04T13:31:18.683Z,28.40
2023-05-04T13:32:18.726Z,28.67
2023-05-04T13:33:28.926Z,28.67
2023-05-04T13:34:18.670Z,28.72
2023-05-04T13:35:18.719Z,28.74
2023-05-04T13:36:18.697Z,28.84
2023-05-04T13:37:18.682Z,28.01
2023-05-04T13:38:18.704Z,28.01
2023-05-04T13:39:18.688Z,28.60
2023-05-04T13:40:18.717Z,28.85
2023-05-04T13:41:18.685Z,29.09
2023-05-04T13:42:18.665Z,28.84
2023-05-04T13:43:18.700Z,29.18
2023-05-04T13:44:18.698Z,29.63
2023-05-04T13:45:18.708Z,29.40
2023-05-04T13:46:18.751Z,28.94
2023-05-04T13:47:18.727Z,30.09
2023-05-04T13:48:18.684Z,29.00
2023-05-04T13:49:18.751Z,28.60
2023-05-04T13:50:18.743Z,28.60
2023-05-04T13:53:18.741Z,28.36
2023-05-04T13:54:18.738Z,28.85
2023-05-04T13:55:18.725Z,29.05
2023-05-04T13:56:18.733Z,29.19
2023-05-04T13:57:18.761Z,29.20